createdAt,value
2022-11-27T00:02:26.870Z,3.78
2022-11-27T00:04:54.160Z,3.92
2022-11-27T00:07:21.404Z,4.55
2022-11-27T00:09:48.530Z,4.40
2022-11-27T00:12:15.726Z,3.90
2022-11-27T00:14:42.850Z,3.70
2022-11-27T00:17:10.211Z,3.58
2022-11-27T00:19:37.655Z,4.00
2022-11-27T00:22:04.910Z,4.30
2022-11-27T00:24:32.234Z,4.28
2022-11-27T00:26:59.447Z,4.00
2022-11-27T00:29:29.360Z,4.43
2022-11-27T00:31:59.518Z,4.22
2022-11-27T00:34:26.581Z,3.22
2022-11-27T00:36:53.692Z,3.83
2022-11-27T00:39:20.795Z,4.07
2022-11-27T00:41:47.861Z,2.85
2022-11-27T00:44:14.901Z,3.55
2022-11-27T00:46:42.280Z,4.30
2022-11-27T00:49:10.800Z,3.50
2022-11-27T00:51:37.872Z,4.85
2022-11-27T00:54:05.599Z,4.53
2022-11-27T00:56:34.568Z,4.43
2022-11-27T00:59:02.100Z,4.18
2022-11-27T01:01:37.504Z,3.92
2022-11-27T01:04:05.309Z,4.13
2022-11-27T01:06:32.728Z,4.07
2022-11-27T01:09:00.438Z,3.83
2022-11-27T01:11:29.552Z,4.93
2022-11-27T01:14:00.002Z,4.07
2022-11-27T01:16:28.279Z,4.07
2022-11-27T01:18:57.697Z,3.55
2022-11-27T01:21:25.387Z,4.68
2022-11-27T01:23:52.517Z,3.83
2022-11-27T01:26:20.045Z,4.03
2022-11-27T01:28:47.638Z,4.07
2022-11-27T01:31:19.273Z,4.93
2022-11-27T01:33:47.076Z,4.18
2022-11-27T01:36:15.469Z,4.22
2022-11-27T01:38:42.621Z,4.13
2022-11-27T01:41:15.595Z,3.65
2022-11-27T01:43:53.850Z,4.68
2022-11-27T01:46:29.774Z,4.13
2022-11-27T01:49:12.262Z,4.00
2022-11-27T01:51:45.090Z,4.70
2022-11-27T01:54:12.515Z,3.72
2022-11-27T01:56:40.735Z,4.20
2022-11-27T01:59:08.231Z,4.43
2022-11-27T02:01:36.801Z,4.55
2022-11-27T02:04:03.982Z,5.25
2022-11-27T02:06:31.147Z,4.80
2022-11-27T02:08:58.289Z,4.35
2022-11-27T02:11:31.205Z,4.47
2022-11-27T02:14:09.175Z,4.07
2022-11-27T02:17:08.873Z,4.00
2022-11-27T02:19:39.126Z,4.35
2022-11-27T02:22:11.994Z,5.25
2022-11-27T02:24:51.118Z,4.75
2022-11-27T02:27:24.335Z,4.25
2022-11-27T02:29:55.093Z,4.60
2022-11-27T02:32:22.153Z,4.15
2022-11-27T02:34:51.346Z,4.93
2022-11-27T02:37:21.529Z,5.32
2022-11-27T02:39:48.620Z,4.25
2022-11-27T02:42:19.202Z,5.47
2022-11-27T02:44:50.186Z,4.38
2022-11-27T02:47:17.396Z,4.07
2022-11-27T02:49:44.902Z,4.78
2022-11-27T02:52:13.481Z,4.28
2022-11-27T02:54:42.043Z,4.53
2022-11-27T02:57:10.758Z,4.38
2022-11-27T02:59:39.103Z,4.30
2022-11-27T03:02:08.922Z,3.78
2022-11-27T03:04:40.223Z,3.75
2022-11-27T03:07:10.361Z,3.35
2022-11-27T03:09:43.018Z,5.45
2022-11-27T03:12:11.415Z,3.42
2022-11-27T03:14:39.860Z,3.60
2022-11-27T03:17:25.890Z,3.45
2022-11-27T03:19:58.864Z,3.28
2022-11-27T03:22:28.801Z,4.15
2022-11-27T03:24:55.897Z,3.65
2022-11-27T03:27:25.743Z,3.72
2022-11-27T03:29:55.795Z,3.65
2022-11-27T03:32:22.942Z,3.50
2022-11-27T03:34:50.418Z,3.13
2022-11-27T03:37:17.592Z,3.88
2022-11-27T03:39:45.233Z,3.47
2022-11-27T03:42:31.199Z,2.90
2022-11-27T03:45:17.366Z,3.47
2022-11-27T03:47:50.547Z,2.78
2022-11-27T03:50:32.500Z,3.53
2022-11-27T03:52:59.726Z,3.17
2022-11-27T03:55:32.458Z,2.92
2022-11-27T03:58:04.503Z,2.88
2022-11-27T04:03:02.887Z,3.47
2022-11-27T04:05:29.989Z,2.33
2022-11-27T04:07:57.282Z,2.97
2022-11-27T04:10:24.505Z,2.97
2022-11-27T04:12:51.606Z,2.80
2022-11-27T04:15:18.742Z,2.75
2022-11-27T04:17:46.249Z,2.83
2022-11-27T04:20:16.626Z,3.03
2022-11-27T04:22:43.983Z,2.40
2022-11-27T04:25:11.604Z,2.30
2022-11-27T04:27:38.708Z,2.70
2022-11-27T04:30:06.111Z,2.42
2022-11-27T04:32:33.287Z,2.42
2022-11-27T04:35:00.570Z,2.28
2022-11-27T04:37:27.833Z,2.50
2022-11-27T04:39:54.944Z,2.25
2022-11-27T04:42:22.507Z,2.42
2022-11-27T04:44:49.806Z,2.40
2022-11-27T04:47:17.054Z,3.05
2022-11-27T04:49:44.170Z,2.47
2022-11-27T04:52:11.304Z,2.05
2022-11-27T04:54:38.963Z,3.03
2022-11-27T04:57:06.610Z,1.90
2022-11-27T04:59:33.729Z,2.42
2022-11-27T05:02:00.912Z,2.67
2022-11-27T05:04:27.992Z,2.15
2022-11-27T05:06:55.148Z,2.00
2022-11-27T05:09:22.296Z,2.10
2022-11-27T05:11:49.560Z,2.25
2022-11-27T05:14:20.802Z,2.40
2022-11-27T05:16:49.774Z,2.42
2022-11-27T05:19:18.096Z,2.45
2022-11-27T05:21:45.852Z,1.90
2022-11-27T05:24:14.307Z,2.28
2022-11-27T05:26:41.648Z,2.78
2022-11-27T05:29:09.711Z,2.20
2022-11-27T05:31:37.755Z,1.60
2022-11-27T05:34:05.234Z,2.47
2022-11-27T05:36:33.439Z,1.77
2022-11-27T05:39:01.306Z,2.42
2022-11-27T05:41:29.080Z,2.63
2022-11-27T05:43:56.266Z,2.03
2022-11-27T05:46:23.925Z,2.45
2022-11-27T05:48:51.121Z,2.35
2022-11-27T05:51:18.376Z,2.15
2022-11-27T05:53:45.708Z,1.95
2022-11-27T05:56:17.292Z,2.00
2022-11-27T05:58:45.859Z,2.67
2022-11-27T06:01:14.438Z,3.20
2022-11-27T06:03:41.860Z,2.67
2022-11-27T06:06:10.102Z,2.58
2022-11-27T06:08:37.951Z,2.20
2022-11-27T06:11:11.428Z,2.30
2022-11-27T06:13:38.535Z,2.42
2022-11-27T06:16:15.726Z,1.88
2022-11-27T06:18:43.302Z,2.50
2022-11-27T06:21:11.375Z,2.20
2022-11-27T06:23:38.507Z,2.10
2022-11-27T06:26:25.486Z,2.63
2022-11-27T06:28:55.969Z,2.22
2022-11-27T06:31:27.610Z,2.30
2022-11-27T06:33:55.575Z,2.33
2022-11-27T06:36:24.360Z,2.08
2022-11-27T06:38:51.594Z,3.30
2022-11-27T06:41:20.452Z,2.38
2022-11-27T06:43:48.061Z,2.60
2022-11-27T06:46:17.552Z,2.85
2022-11-27T06:48:45.305Z,3.10
2022-11-27T06:51:14.263Z,2.78
2022-11-27T06:53:42.107Z,2.30
2022-11-27T06:56:13.255Z,2.95
2022-11-27T06:58:40.718Z,2.83
2022-11-27T07:01:12.745Z,2.30
2022-11-27T07:06:08.308Z,3.05
2022-11-27T07:08:35.807Z,2.38
2022-11-27T07:11:03.848Z,2.60
2022-11-27T07:13:31.346Z,3.15
2022-11-27T07:16:08.852Z,3.42
2022-11-27T07:18:39.932Z,3.70
2022-11-27T07:21:07.585Z,3.42
2022-11-27T07:23:34.673Z,2.80
2022-11-27T07:26:06.366Z,3.08
2022-11-27T07:28:33.496Z,3.50
2022-11-27T07:31:01.059Z,3.55
2022-11-27T07:33:28.256Z,3.45
2022-11-27T07:35:59.196Z,3.35
2022-11-27T07:38:26.376Z,3.67
2022-11-27T07:40:54.084Z,3.22
2022-11-27T07:43:21.765Z,3.33
2022-11-27T07:45:48.986Z,3.60
2022-11-27T07:48:16.174Z,3.28
2022-11-27T07:50:43.345Z,3.83
2022-11-27T07:53:10.596Z,3.88
2022-11-27T07:55:41.928Z,3.60
2022-11-27T07:58:09.364Z,3.30
2022-11-27T08:00:36.835Z,4.15
2022-11-27T08:03:04.107Z,2.88
2022-11-27T08:05:34.244Z,3.17
2022-11-27T08:08:04.162Z,3.45
2022-11-27T08:10:32.545Z,3.70
2022-11-27T08:12:59.607Z,3.30
2022-11-27T08:15:26.670Z,3.25
2022-11-27T08:17:53.806Z,3.40
2022-11-27T08:20:20.883Z,3.78
2022-11-27T08:22:48.001Z,3.80
2022-11-27T08:25:15.076Z,3.85
2022-11-27T08:27:42.139Z,3.80
2022-11-27T08:30:09.841Z,3.75
2022-11-27T08:32:40.650Z,3.38
2022-11-27T08:35:08.005Z,3.90
2022-11-27T08:37:35.666Z,3.97
2022-11-27T08:40:02.963Z,3.63
2022-11-27T08:42:30.082Z,3.30
2022-11-27T08:44:57.224Z,3.20
2022-11-27T08:47:24.325Z,4.85
2022-11-27T08:49:51.563Z,3.88
2022-11-27T08:52:18.629Z,3.95
2022-11-27T08:54:45.744Z,3.65
2022-11-27T08:57:12.819Z,2.95
2022-11-27T08:59:39.897Z,3.90
2022-11-27T09:02:06.967Z,4.10
2022-11-27T09:04:34.174Z,3.70
2022-11-27T09:07:01.288Z,3.67
2022-11-27T09:09:29.226Z,3.63
2022-11-27T09:11:56.259Z,4.70
2022-11-27T09:14:23.462Z,3.75
2022-11-27T09:16:51.250Z,3.63
2022-11-27T09:19:18.523Z,3.90
2022-11-27T09:21:45.634Z,3.83
2022-11-27T09:24:12.746Z,4.03
2022-11-27T09:26:39.828Z,3.72
2022-11-27T09:29:06.860Z,5.30
2022-11-27T09:31:34.052Z,4.88
2022-11-27T09:34:01.169Z,4.07
2022-11-27T09:36:28.540Z,4.45
2022-11-27T09:38:55.613Z,4.53
2022-11-27T09:41:41.611Z,4.45
2022-11-27T09:44:24.116Z,4.60
2022-11-27T09:46:52.346Z,4.32
2022-11-27T09:49:28.258Z,4.25
2022-11-27T09:52:27.650Z,5.40
2022-11-27T09:55:01.097Z,4.38
2022-11-27T09:57:37.843Z,4.45
2022-11-27T10:00:08.019Z,4.50
2022-11-27T10:02:36.150Z,5.18
2022-11-27T10:05:14.941Z,5.70
2022-11-27T10:07:51.590Z,3.60
2022-11-27T10:10:40.687Z,4.32
2022-11-27T10:13:10.790Z,4.82
2022-11-27T10:15:47.756Z,4.43
2022-11-27T10:18:20.218Z,5.20
2022-11-27T10:20:51.860Z,4.03
2022-11-27T10:23:22.033Z,3.72
2022-11-27T10:25:53.042Z,3.95
2022-11-27T10:28:43.456Z,4.88
2022-11-27T10:31:13.046Z,3.95
2022-11-27T10:33:54.547Z,4.55
2022-11-27T10:36:34.531Z,5.53
2022-11-27T10:39:02.360Z,4.65
2022-11-27T10:41:49.767Z,5.22
2022-11-27T10:44:20.399Z,4.93
2022-11-27T10:46:47.960Z,4.70
2022-11-27T10:49:15.255Z,5.28
2022-11-27T10:51:42.468Z,4.95
2022-11-27T10:54:12.946Z,5.15
2022-11-27T10:56:45.888Z,4.05
2022-11-27T10:59:34.939Z,4.93
2022-11-27T11:02:05.767Z,5.05
2022-11-27T11:04:48.430Z,4.85
2022-11-27T11:07:26.345Z,5.07
2022-11-27T11:09:54.303Z,4.90
2022-11-27T11:12:22.838Z,4.88
2022-11-27T11:14:53.143Z,5.13
2022-11-27T11:17:25.214Z,5.10
2022-11-27T11:19:52.401Z,5.47
2022-11-27T11:22:19.948Z,5.70
2022-11-27T11:24:48.431Z,5.03
2022-11-27T11:27:29.531Z,4.22
2022-11-27T11:29:56.604Z,4.53
2022-11-27T11:32:25.332Z,4.32
2022-11-27T11:35:00.619Z,5.88
2022-11-27T11:37:32.914Z,4.20
2022-11-27T11:40:05.522Z,5.15
2022-11-27T11:42:33.723Z,4.70
2022-11-27T11:45:13.521Z,4.55
2022-11-27T11:47:47.999Z,3.75
2022-11-27T11:50:17.378Z,5.45
2022-11-27T11:52:57.115Z,4.45
2022-11-27T11:55:28.312Z,4.07
2022-11-27T11:58:10.122Z,4.63
2022-11-27T12:01:11.762Z,3.72
2022-11-27T12:03:39.259Z,4.05
2022-11-27T12:06:29.495Z,3.80
2022-11-27T12:08:56.578Z,4.40
2022-11-27T12:11:29.944Z,4.30
2022-11-27T12:14:14.169Z,4.13
2022-11-27T12:17:13.638Z,4.00
2022-11-27T12:19:46.602Z,3.88
2022-11-27T12:22:19.609Z,4.82
2022-11-27T12:24:55.519Z,4.10
2022-11-27T12:27:47.334Z,3.40
2022-11-27T12:30:22.095Z,4.35
2022-11-27T12:32:55.075Z,3.70
2022-11-27T12:35:32.747Z,4.22
2022-11-27T12:38:05.993Z,4.00
2022-11-27T12:40:57.271Z,4.05
2022-11-27T12:43:24.745Z,4.05
2022-11-27T12:45:56.972Z,3.95
2022-11-27T12:48:26.414Z,3.90
2022-11-27T12:51:02.858Z,3.55
2022-11-27T12:53:30.847Z,7.97
2022-11-27T12:56:24.546Z,4.88
2022-11-27T12:58:59.878Z,3.75
2022-11-27T13:01:30.012Z,3.17
2022-11-27T13:04:09.912Z,3.80
2022-11-27T13:06:41.095Z,3.58
2022-11-27T13:09:21.657Z,4.40
2022-11-27T13:11:48.819Z,3.33
2022-11-27T13:14:23.973Z,4.80
2022-11-27T13:16:53.712Z,3.88
2022-11-27T13:19:27.986Z,3.58
2022-11-27T13:21:56.326Z,3.60
2022-11-27T13:24:24.308Z,3.67
2022-11-27T13:26:57.415Z,3.53
2022-11-27T13:29:24.452Z,3.70
2022-11-27T13:31:55.221Z,5.53
2022-11-27T13:34:24.083Z,4.63
2022-11-27T13:37:05.392Z,3.97
2022-11-27T13:39:37.504Z,6.47
2022-11-27T13:44:31.747Z,5.03
2022-11-27T13:47:00.996Z,4.95
2022-11-27T13:49:32.297Z,5.28
2022-11-27T13:52:16.322Z,4.47
2022-11-27T13:54:56.662Z,4.28
2022-11-27T13:57:24.257Z,6.18
2022-11-27T14:00:09.916Z,4.13
2022-11-27T14:02:43.282Z,3.45
2022-11-27T14:05:11.258Z,3.50
2022-11-27T14:07:41.334Z,3.80
2022-11-27T14:10:15.731Z,4.78
2022-11-27T14:12:43.526Z,4.88
2022-11-27T14:15:20.791Z,5.63
2022-11-27T14:17:52.611Z,7.28
2022-11-27T14:20:21.667Z,4.40
2022-11-27T14:23:11.229Z,4.65
2022-11-27T14:25:40.041Z,3.67
2022-11-27T14:28:10.113Z,4.32
2022-11-27T14:30:41.254Z,4.10
2022-11-27T14:33:16.747Z,3.67
2022-11-27T14:35:43.844Z,4.90
2022-11-27T14:38:11.818Z,4.10
2022-11-27T14:40:39.265Z,3.95
2022-11-27T14:43:10.470Z,4.38
2022-11-27T14:45:38.371Z,4.65
2022-11-27T14:48:05.569Z,4.43
2022-11-27T14:50:32.685Z,4.38
2022-11-27T14:53:00.150Z,4.18
2022-11-27T14:55:33.103Z,5.30
2022-11-27T14:58:01.735Z,4.57
2022-11-27T15:00:28.998Z,4.47
2022-11-27T15:02:56.798Z,3.85
2022-11-27T15:05:28.814Z,5.00
2022-11-27T15:10:25.477Z,3.95
2022-11-27T15:12:52.646Z,5.10
2022-11-27T15:15:21.470Z,4.57
2022-11-27T15:17:53.920Z,4.57
2022-11-27T15:20:26.391Z,4.47
2022-11-27T15:22:57.702Z,4.40
2022-11-27T15:25:34.967Z,4.78
2022-11-27T15:28:02.210Z,4.18
2022-11-27T15:30:29.374Z,4.82
2022-11-27T15:32:56.804Z,4.13
2022-11-27T15:35:36.424Z,4.05
2022-11-27T15:38:11.159Z,3.78
2022-11-27T15:40:39.861Z,3.72
2022-11-27T15:43:11.129Z,3.75
2022-11-27T15:45:38.329Z,4.30
2022-11-27T15:48:05.521Z,4.50
2022-11-27T15:50:32.725Z,4.97
2022-11-27T15:53:01.013Z,5.00
2022-11-27T15:55:28.125Z,4.50
2022-11-27T15:57:55.223Z,4.47
2022-11-27T16:00:22.485Z,4.95
2022-11-27T16:02:49.657Z,4.13
2022-11-27T16:05:16.864Z,4.65
2022-11-27T16:07:43.989Z,4.70
2022-11-27T16:10:11.713Z,5.03
2022-11-27T16:12:39.070Z,5.10
2022-11-27T16:15:07.531Z,5.55
2022-11-27T16:17:34.739Z,4.68
2022-11-27T16:20:02.145Z,6.13
2022-11-27T16:22:29.341Z,5.50
2022-11-27T16:24:56.885Z,4.50
2022-11-27T16:27:24.236Z,4.38
2022-11-27T16:29:51.491Z,5.03
2022-11-27T16:32:18.672Z,5.20
2022-11-27T16:34:45.816Z,5.13
2022-11-27T16:37:18.132Z,4.72
2022-11-27T16:39:46.119Z,5.22
2022-11-27T16:42:13.359Z,5.32
2022-11-27T16:44:43.175Z,5.32
2022-11-27T16:47:11.080Z,4.75
2022-11-27T16:49:38.254Z,4.75
2022-11-27T16:52:05.385Z,4.93
2022-11-27T16:54:32.452Z,5.60
2022-11-27T16:56:59.930Z,6.43
2022-11-27T16:59:27.065Z,5.38
2022-11-27T17:01:54.244Z,6.88
2022-11-27T17:04:21.861Z,9.93
2022-11-27T17:06:49.521Z,6.97
2022-11-27T17:09:16.728Z,6.20
2022-11-27T17:11:45.566Z,7.03
2022-11-27T17:14:12.665Z,7.10
2022-11-27T17:16:41.390Z,6.05
2022-11-27T17:19:09.832Z,5.45
2022-11-27T17:21:36.890Z,4.90
2022-11-27T17:24:10.067Z,5.30
2022-11-27T17:26:44.258Z,5.35
2022-11-27T17:29:12.556Z,7.53
2022-11-27T17:31:39.912Z,5.15
2022-11-27T17:34:07.548Z,5.50
2022-11-27T17:36:37.317Z,5.55
2022-11-27T17:39:06.043Z,5.38
2022-11-27T17:41:33.523Z,4.93
2022-11-27T17:44:00.864Z,9.10
2022-11-27T17:46:28.995Z,6.85
2022-11-27T17:49:00.195Z,6.13
2022-11-27T17:51:28.802Z,5.45
2022-11-27T17:53:56.083Z,5.35
2022-11-27T17:56:23.292Z,5.20
2022-11-27T17:58:50.537Z,5.20
2022-11-27T18:01:19.149Z,4.85
2022-11-27T18:03:46.898Z,6.03
2022-11-27T18:06:14.715Z,4.90
2022-11-27T18:08:42.019Z,5.57
2022-11-27T18:11:10.400Z,5.00
2022-11-27T18:13:37.579Z,5.15
2022-11-27T18:16:06.176Z,5.00
2022-11-27T18:18:33.345Z,4.68
2022-11-27T18:21:05.897Z,5.32
2022-11-27T18:23:36.237Z,4.50
2022-11-27T18:26:06.731Z,5.30
2022-11-27T18:28:33.894Z,4.78
2022-11-27T18:31:07.725Z,4.72
2022-11-27T18:33:35.394Z,5.15
2022-11-27T18:36:02.849Z,4.80
2022-11-27T18:38:33.223Z,4.35
2022-11-27T18:41:14.069Z,4.55
2022-11-27T18:43:41.390Z,5.95
2022-11-27T18:46:09.509Z,6.15
2022-11-27T18:48:39.194Z,5.38
2022-11-27T18:51:07.804Z,4.95
2022-11-27T18:53:34.948Z,5.15
2022-11-27T18:56:06.480Z,4.72
2022-11-27T18:58:35.173Z,4.65
2022-11-27T19:01:03.829Z,5.35
2022-11-27T19:03:31.327Z,5.15
2022-11-27T19:06:00.557Z,4.65
2022-11-27T19:08:28.024Z,5.28
2022-11-27T19:10:55.293Z,5.13
2022-11-27T19:13:22.412Z,4.88
2022-11-27T19:15:50.439Z,5.70
2022-11-27T19:18:17.632Z,5.47
2022-11-27T19:20:44.712Z,6.05
2022-11-27T19:23:11.815Z,5.30
2022-11-27T19:25:39.070Z,5.18
2022-11-27T19:28:07.090Z,5.57
2022-11-27T19:30:35.891Z,5.40
2022-11-27T19:33:03.091Z,4.75
2022-11-27T19:35:30.968Z,5.13
2022-11-27T19:37:58.532Z,6.60
2022-11-27T19:40:26.423Z,6.55
2022-11-27T19:42:57.970Z,6.22
2022-11-27T19:45:28.068Z,6.38
2022-11-27T19:47:55.169Z,5.70
2022-11-27T19:50:22.264Z,5.50
2022-11-27T19:52:49.534Z,5.18
2022-11-27T19:55:16.698Z,7.57
2022-11-27T19:57:43.748Z,5.55
2022-11-27T20:00:11.267Z,5.30
2022-11-27T20:02:38.603Z,5.00
2022-11-27T20:05:06.505Z,4.55
2022-11-27T20:07:33.726Z,4.80
2022-11-27T20:10:01.025Z,4.93
2022-11-27T20:12:28.092Z,5.00
2022-11-27T20:14:55.449Z,4.97
2022-11-27T20:17:22.524Z,4.90
2022-11-27T20:19:49.681Z,5.30
2022-11-27T20:22:16.912Z,4.55
2022-11-27T20:24:58.458Z,9.85
2022-11-27T20:27:31.268Z,6.13
2022-11-27T20:30:00.125Z,5.07
2022-11-27T20:32:27.235Z,5.82
2022-11-27T20:34:54.365Z,6.00
2022-11-27T20:37:21.563Z,6.03
2022-11-27T20:39:48.721Z,5.63
2022-11-27T20:42:15.919Z,4.78
2022-11-27T20:44:43.112Z,5.40
2022-11-27T20:47:10.184Z,4.53
2022-11-27T20:49:37.757Z,5.03
2022-11-27T20:52:05.512Z,4.20
2022-11-27T20:54:32.568Z,4.75
2022-11-27T20:57:00.412Z,4.85
2022-11-27T20:59:27.560Z,4.80
2022-11-27T21:01:54.743Z,4.47
2022-11-27T21:04:23.980Z,4.75
2022-11-27T21:06:51.512Z,5.55
2022-11-27T21:09:19.472Z,5.53
2022-11-27T21:11:47.666Z,5.15
2022-11-27T21:14:15.775Z,4.78
2022-11-27T21:16:46.063Z,5.40
2022-11-27T21:19:15.075Z,5.38
2022-11-27T21:21:42.246Z,5.40
2022-11-27T21:24:09.580Z,4.22
2022-11-27T21:26:36.713Z,4.35
2022-11-27T21:29:04.728Z,5.75
2022-11-27T21:31:37.158Z,4.90
2022-11-27T21:34:05.658Z,5.43
2022-11-27T21:36:33.964Z,5.10
2022-11-27T21:39:01.834Z,4.50
2022-11-27T21:41:29.455Z,5.57
2022-11-27T21:43:57.597Z,5.47
2022-11-27T21:46:26.632Z,5.13
2022-11-27T21:48:56.699Z,4.95
2022-11-27T21:51:25.704Z,4.53
2022-11-27T21:53:54.136Z,4.82
2022-11-27T21:56:22.447Z,4.95
2022-11-27T21:58:52.312Z,4.68
2022-11-27T22:01:20.992Z,4.72
2022-11-27T22:03:50.228Z,4.68
2022-11-27T22:06:18.485Z,4.05
2022-11-27T22:08:46.883Z,4.78
2022-11-27T22:11:15.337Z,4.60
2022-11-27T22:13:43.118Z,5.30
2022-11-27T22:16:11.701Z,4.68
2022-11-27T22:18:39.370Z,5.03
2022-11-27T22:21:07.839Z,4.93
2022-11-27T22:23:35.671Z,5.65
2022-11-27T22:26:07.623Z,5.45
2022-11-27T22:28:36.369Z,4.63
2022-11-27T22:31:08.494Z,4.50
2022-11-27T22:33:37.253Z,4.57
2022-11-27T22:36:18.367Z,5.05
2022-11-27T22:38:46.792Z,4.70
2022-11-27T22:41:14.714Z,4.35
2022-11-27T22:43:42.190Z,4.93
2022-11-27T22:46:11.057Z,4.82
2022-11-27T22:48:38.528Z,4.75
2022-11-27T22:51:06.209Z,5.30
2022-11-27T22:53:34.065Z,5.13
2022-11-27T22:56:08.914Z,5.50
2022-11-27T22:58:41.181Z,5.68
2022-11-27T23:01:10.411Z,5.15
2022-11-27T23:03:41.054Z,5.40
2022-11-27T23:06:11.999Z,5.20
2022-11-27T23:08:43.157Z,5.40
2022-11-27T23:11:11.447Z,5.50
2022-11-27T23:13:38.813Z,5.90
2022-11-27T23:16:07.474Z,5.30
2022-11-27T23:18:35.908Z,5.53
2022-11-27T23:21:10.627Z,5.28
2022-11-27T23:23:38.325Z,5.75
2022-11-27T23:26:06.298Z,5.20
2022-11-27T23:28:33.797Z,5.78
2022-11-27T23:31:28.214Z,4.72
2022-11-27T23:33:52.994Z,5.95
2022-11-27T23:36:20.383Z,5.57
2022-11-27T23:38:47.742Z,5.57
2022-11-27T23:41:24.933Z,5.65
2022-11-27T23:43:55.877Z,5.35
2022-11-27T23:46:28.299Z,4.82
2022-11-27T23:48:56.635Z,4.80
2022-11-27T23:51:25.995Z,6.03
2022-11-27T23:53:54.045Z,5.78
2022-11-27T23:56:23.413Z,6.13
2022-11-27T23:58:50.977Z,6.38
